createdAt,value
2019-02-08T00:03:48.970Z,100939.98
2019-02-08T00:08:54.314Z,100947.78
2019-02-08T00:13:59.678Z,100941.11
2019-02-08T00:19:05.162Z,100946.95
2019-02-08T00:24:10.572Z,100956.84
2019-02-08T00:29:15.846Z,100956.23
2019-02-08T00:34:21.200Z,100951.11
2019-02-08T00:39:26.530Z,100945.83
2019-02-08T00:44:31.815Z,100945.51
2019-02-08T00:49:37.134Z,100945.51
2019-02-08T00:54:42.620Z,100947.02
2019-02-08T00:59:47.927Z,100951.72
2019-02-08T01:04:53.346Z,100944.78
2019-02-08T01:09:58.694Z,100941.72
2019-02-08T01:15:04.423Z,100939.91
2019-02-08T01:20:14.056Z,100931.84
2019-02-08T01:25:21.682Z,100918.82
2019-02-08T01:30:31.131Z,100922.30
2019-02-08T01:35:36.462Z,100926.38
2019-02-08T01:40:41.846Z,100931.65
2019-02-08T01:45:47.167Z,100931.21
2019-02-08T01:50:52.502Z,100933.05
2019-02-08T01:55:57.803Z,100930.22
2019-02-08T02:01:03.159Z,100919.86
2019-02-08T02:06:08.442Z,100920.67
2019-02-08T02:11:13.767Z,100927.33
2019-02-08T02:16:19.178Z,100927.77
2019-02-08T02:21:24.517Z,100933.20
2019-02-08T02:26:29.994Z,100929.44
2019-02-08T02:31:35.354Z,100924.19
2019-02-08T02:36:40.730Z,100926.85
2019-02-08T02:41:46.088Z,100925.66
2019-02-08T02:46:51.404Z,100927.23
2019-02-08T02:51:56.789Z,100926.05
2019-02-08T02:57:02.081Z,100922.33
2019-02-08T03:02:07.371Z,100925.08
2019-02-08T03:07:12.770Z,100928.84
2019-02-08T03:12:18.079Z,100927.83
2019-02-08T03:17:23.450Z,100919.07
2019-02-08T03:22:28.814Z,100913.00
2019-02-08T03:27:34.207Z,100915.55
2019-02-08T03:32:39.508Z,100912.92
2019-02-08T03:37:44.831Z,100909.84
2019-02-08T03:42:50.134Z,100909.27
2019-02-08T03:47:55.434Z,100903.84
2019-02-08T03:53:00.732Z,100897.05
2019-02-08T03:58:06.386Z,100888.86
2019-02-08T04:03:11.704Z,100891.60
2019-02-08T04:08:17.106Z,100893.75
2019-02-08T04:13:22.558Z,100894.27
2019-02-08T04:18:27.950Z,100883.23
2019-02-08T04:23:33.379Z,100874.89
2019-02-08T04:28:38.800Z,100877.73
2019-02-08T04:33:44.102Z,100876.53
2019-02-08T04:38:49.521Z,100874.37
2019-02-08T04:43:54.874Z,100875.94
2019-02-08T04:49:00.190Z,100878.18
2019-02-08T04:54:05.587Z,100871.99
2019-02-08T04:59:10.992Z,100877.60
2019-02-08T05:04:16.298Z,100877.67
2019-02-08T05:09:21.739Z,100874.16
2019-02-08T05:14:27.111Z,100868.80
2019-02-08T05:19:32.427Z,100868.66
2019-02-08T05:24:37.806Z,100865.23
2019-02-08T05:29:43.156Z,100861.45
2019-02-08T05:34:48.587Z,100862.40
2019-02-08T05:39:53.890Z,100856.33
2019-02-08T05:44:59.298Z,100855.18
2019-02-08T05:50:05.363Z,100851.64
2019-02-08T05:55:12.349Z,100851.38
2019-02-08T06:00:41.222Z,100853.08
2019-02-08T06:05:46.559Z,100848.56
2019-02-08T06:10:51.887Z,100849.25
2019-02-08T06:15:57.250Z,100854.09
2019-02-08T06:21:02.561Z,100861.83
2019-02-08T06:26:07.931Z,100852.69
2019-02-08T06:31:13.352Z,100843.82
2019-02-08T06:36:18.928Z,100848.84
2019-02-08T06:41:24.286Z,100850.25
2019-02-08T06:46:29.663Z,100850.91
2019-02-08T06:51:35.057Z,100863.02
2019-02-08T06:57:14.497Z,100863.66
2019-02-08T07:02:47.601Z,100859.56
2019-02-08T07:08:10.258Z,100861.88
2019-02-08T07:13:35.734Z,100863.16
2019-02-08T07:18:58.194Z,100856.08
2019-02-08T07:24:11.921Z,100856.81
2019-02-08T07:29:36.214Z,100864.36
2019-02-08T07:35:00.452Z,100853.19
2019-02-08T07:40:26.342Z,100850.42
2019-02-08T07:45:49.564Z,100841.35
2019-02-08T07:51:19.782Z,100850.55
2019-02-08T07:56:30.818Z,100851.10
2019-02-08T08:01:55.034Z,100858.67
2019-02-08T08:07:34.250Z,100855.93
2019-02-08T08:13:07.237Z,100861.72
2019-02-08T08:18:30.458Z,100868.86
2019-02-08T08:23:57.780Z,100865.62
2019-02-08T08:29:22.014Z,100857.04
2019-02-08T08:35:14.772Z,100860.70
2019-02-08T08:41:24.661Z,100856.60
2019-02-08T08:47:34.548Z,100856.67
2019-02-08T08:53:44.003Z,100849.81
2019-02-08T08:59:37.257Z,100852.03
2019-02-08T09:05:13.018Z,100841.20
2019-02-08T09:11:30.758Z,100834.96
2019-02-08T09:17:27.350Z,100828.84
2019-02-08T09:23:13.272Z,100825.04
2019-02-08T09:28:40.070Z,100819.70
2019-02-08T09:35:03.661Z,100812.25
2019-02-08T09:41:09.742Z,100811.22
2019-02-08T09:47:32.774Z,100797.34
2019-02-08T09:54:17.613Z,100792.02
2019-02-08T10:00:27.231Z,100786.67
2019-02-08T10:06:27.363Z,100779.31
2019-02-08T10:12:32.008Z,100768.91
2019-02-08T10:18:36.964Z,100764.94
2019-02-08T10:24:43.074Z,100758.73
2019-02-08T10:30:56.242Z,100750.70
2019-02-08T10:36:56.446Z,100747.88
2019-02-08T10:42:52.295Z,100755.69
2019-02-08T10:48:42.016Z,100752.59
2019-02-08T10:54:51.143Z,100753.54
2019-02-08T11:00:50.955Z,100737.95
2019-02-08T11:07:04.986Z,100736.70
2019-02-08T11:13:11.725Z,100724.61
2019-02-08T11:19:22.255Z,100710.13
2019-02-08T11:24:28.400Z,100698.57
2019-02-08T11:29:33.737Z,100695.89
2019-02-08T11:34:43.219Z,100696.59
2019-02-08T11:39:48.608Z,100687.70
2019-02-08T11:44:54.157Z,100669.04
2019-02-08T11:49:59.649Z,100662.09
2019-02-08T11:55:05.290Z,100655.29
2019-02-08T12:00:31.608Z,100647.66
2019-02-08T12:05:36.998Z,100647.47
2019-02-08T12:10:42.331Z,100643.98
2019-02-08T12:15:47.736Z,100650.61
2019-02-08T12:20:53.033Z,100644.63
2019-02-08T12:25:58.498Z,100635.41
2019-02-08T12:31:04.003Z,100632.70
2019-02-08T12:36:09.389Z,100614.66
2019-02-08T12:41:14.764Z,100613.52
2019-02-08T12:46:20.076Z,100606.92
2019-02-08T12:51:25.383Z,100607.39
2019-02-08T12:56:30.714Z,100596.58
2019-02-08T13:01:37.770Z,100601.81
2019-02-08T13:06:43.074Z,100596.52
2019-02-08T13:11:48.581Z,100586.88
2019-02-08T13:16:53.973Z,100581.24
2019-02-08T13:21:59.250Z,100580.17
2019-02-08T13:27:04.604Z,100578.15
2019-02-08T13:32:09.901Z,100564.78
2019-02-08T13:37:15.314Z,100561.80
2019-02-08T13:42:20.643Z,100555.25
2019-02-08T13:47:26.080Z,100549.48
2019-02-08T13:52:31.503Z,100552.00
2019-02-08T13:57:36.851Z,100543.41
2019-02-08T14:02:42.681Z,100549.04
2019-02-08T14:07:48.313Z,100536.91
2019-02-08T14:12:53.619Z,100515.90
2019-02-08T14:17:59.088Z,100506.30
2019-02-08T14:23:04.451Z,100498.59
2019-02-08T14:28:10.033Z,100482.13
2019-02-08T14:33:15.349Z,100469.78
2019-02-08T14:38:22.197Z,100460.95
2019-02-08T14:43:27.566Z,100451.41
2019-02-08T14:48:32.847Z,100453.69
2019-02-08T14:53:38.252Z,100449.83
2019-02-08T14:58:43.664Z,100451.88
2019-02-08T15:03:48.956Z,100438.38
2019-02-08T15:08:54.424Z,100425.56
2019-02-08T15:13:59.827Z,100411.36
2019-02-08T15:19:05.342Z,100395.18
2019-02-08T15:24:10.841Z,100400.84
2019-02-08T15:29:16.136Z,100396.70
2019-02-08T15:34:21.451Z,100383.30
2019-02-08T15:39:26.903Z,100377.36
2019-02-08T15:44:32.210Z,100373.30
2019-02-08T15:49:37.631Z,100363.75
2019-02-08T15:54:45.014Z,100373.30
2019-02-08T15:59:50.302Z,100368.31
2019-02-08T16:04:55.643Z,100367.59
2019-02-08T16:10:00.941Z,100354.02
2019-02-08T16:15:08.454Z,100351.16
2019-02-08T16:20:14.001Z,100344.45
2019-02-08T16:25:20.013Z,100347.32
2019-02-08T16:30:28.003Z,100338.66
2019-02-08T16:35:33.407Z,100316.67
2019-02-08T16:40:39.035Z,100316.68
2019-02-08T16:45:44.378Z,100316.08
2019-02-08T16:50:49.814Z,100316.29
2019-02-08T16:55:55.250Z,100304.18
2019-02-08T17:01:00.607Z,100291.66
2019-02-08T17:06:06.136Z,100275.02
2019-02-08T17:11:11.640Z,100263.75
2019-02-08T17:16:17.005Z,100264.39
2019-02-08T17:21:22.347Z,100251.03
2019-02-08T17:26:27.720Z,100242.81
2019-02-08T17:31:33.140Z,100242.61
2019-02-08T17:36:38.630Z,100231.18
2019-02-08T17:41:44.048Z,100221.67
2019-02-08T17:46:49.367Z,100219.27
2019-02-08T17:51:54.827Z,100222.63
2019-02-08T17:57:00.264Z,100222.27
2019-02-08T18:02:05.657Z,100220.11
2019-02-08T18:07:11.193Z,100217.03
2019-02-08T18:12:17.953Z,100213.46
2019-02-08T18:17:23.325Z,100210.56
2019-02-08T18:22:28.706Z,100219.31
2019-02-08T18:27:34.115Z,100216.22
2019-02-08T18:32:39.496Z,100204.11
2019-02-08T18:37:44.818Z,100187.53
2019-02-08T18:42:50.133Z,100181.20
2019-02-08T18:47:55.476Z,100182.11
2019-02-08T18:53:00.862Z,100166.95
2019-02-08T18:58:06.388Z,100158.92
2019-02-08T19:03:11.714Z,100147.93
2019-02-08T19:08:17.084Z,100139.30
2019-02-08T19:13:22.430Z,100131.57
2019-02-08T19:18:27.809Z,100132.53
2019-02-08T19:23:33.217Z,100134.13
2019-02-08T19:28:38.714Z,100121.63
2019-02-08T19:33:44.069Z,100113.59
2019-02-08T19:38:49.556Z,100093.70
2019-02-08T19:43:55.687Z,100087.59
2019-02-08T19:49:01.197Z,100078.87
2019-02-08T19:54:06.544Z,100069.92
2019-02-08T19:59:11.869Z,100077.95
2019-02-08T20:04:17.216Z,100074.97
2019-02-08T20:09:22.916Z,100070.35
2019-02-08T20:14:28.443Z,100060.13
2019-02-08T20:19:33.841Z,100060.53
2019-02-08T20:24:39.255Z,100046.54
2019-02-08T20:29:44.768Z,100042.72
2019-02-08T20:34:50.214Z,100039.12
2019-02-08T20:39:55.690Z,100030.44
2019-02-08T20:45:01.352Z,100023.46
2019-02-08T20:50:08.379Z,100019.52
2019-02-08T20:55:14.073Z,100003.40
2019-02-08T21:00:27.838Z,99980.77
2019-02-08T21:05:33.171Z,99957.45
2019-02-08T21:10:38.651Z,99945.15
2019-02-08T21:15:43.966Z,99944.52
2019-02-08T21:20:51.581Z,99942.48
2019-02-08T21:25:57.010Z,99909.30
2019-02-08T21:31:02.553Z,99888.04
2019-02-08T21:36:08.096Z,99895.00
2019-02-08T21:41:13.501Z,99880.32
2019-02-08T21:46:19.389Z,99875.21
2019-02-08T21:51:24.806Z,99872.38
2019-02-08T21:56:30.837Z,99872.98
2019-02-08T22:01:36.217Z,99869.55
2019-02-08T22:06:41.566Z,99861.47
2019-02-08T22:11:46.857Z,99866.89
2019-02-08T22:16:52.321Z,99859.28
2019-02-08T22:21:57.617Z,99857.73
2019-02-08T22:27:02.983Z,99853.64
2019-02-08T22:32:08.319Z,99850.38
2019-02-08T22:37:13.715Z,99842.34
2019-02-08T22:42:19.017Z,99839.20
2019-02-08T22:47:24.410Z,99827.28
2019-02-08T22:52:29.727Z,99821.55
2019-02-08T22:57:35.135Z,99802.67
2019-02-08T23:02:40.508Z,99804.48
2019-02-08T23:07:45.955Z,99780.61
2019-02-08T23:12:51.520Z,99778.81
2019-02-08T23:17:56.841Z,99792.37
2019-02-08T23:23:02.138Z,99783.75
2019-02-08T23:28:07.445Z,99780.28
2019-02-08T23:33:12.740Z,99763.97
2019-02-08T23:38:18.080Z,99768.86
2019-02-08T23:43:23.425Z,99753.70
2019-02-08T23:48:28.771Z,99759.56
2019-02-08T23:53:34.089Z,99753.94
2019-02-08T23:58:39.469Z,99740.81
